createdAt,value
2018-04-15T00:00:13.121Z,74.00
2018-04-15T00:02:40.664Z,74.16
2018-04-15T00:05:08.210Z,74.37
2018-04-15T00:07:35.765Z,74.40
2018-04-15T00:10:03.413Z,74.65
2018-04-15T00:12:30.959Z,74.62
2018-04-15T00:14:58.507Z,75.11
2018-04-15T00:17:26.083Z,75.04
2018-04-15T00:19:53.652Z,75.00
2018-04-15T00:22:21.200Z,74.92
2018-04-15T00:24:49.117Z,74.01
2018-04-15T00:27:16.682Z,74.48
2018-04-15T00:29:44.239Z,74.35
2018-04-15T00:32:11.836Z,74.67
2018-04-15T00:34:39.388Z,74.22
2018-04-15T00:37:06.938Z,74.98
2018-04-15T00:39:34.523Z,75.39
2018-04-15T00:42:02.115Z,74.78
2018-04-15T00:44:29.662Z,74.78
2018-04-15T00:46:57.751Z,75.23
2018-04-15T00:49:25.300Z,74.76
2018-04-15T00:51:52.850Z,74.63
2018-04-15T00:54:20.448Z,74.58
2018-04-15T00:56:47.986Z,74.63
2018-04-15T00:59:15.528Z,74.89
2018-04-15T01:01:43.253Z,74.72
2018-04-15T01:04:10.790Z,75.28
2018-04-15T01:06:38.337Z,75.30
2018-04-15T01:09:07.011Z,74.92
2018-04-15T01:11:34.564Z,75.12
2018-04-15T01:14:02.127Z,75.37
2018-04-15T01:16:29.720Z,74.59
2018-04-15T01:18:57.256Z,74.83
2018-04-15T01:21:24.804Z,74.78
2018-04-15T01:23:52.480Z,75.11
2018-04-15T01:26:20.056Z,74.77
2018-04-15T01:28:47.603Z,74.83
2018-04-15T01:31:15.172Z,75.25
2018-04-15T01:33:42.712Z,74.68
2018-04-15T01:36:10.261Z,74.88
2018-04-15T01:38:37.982Z,74.69
2018-04-15T01:41:05.518Z,74.05
2018-04-15T01:43:33.062Z,73.74
2018-04-15T01:46:00.957Z,73.33
2018-04-15T01:48:28.517Z,73.69
2018-04-15T01:50:56.078Z,73.75
2018-04-15T01:53:23.666Z,73.91
2018-04-15T01:55:51.222Z,74.11
2018-04-15T01:58:18.774Z,73.86
2018-04-15T02:00:46.368Z,74.10
2018-04-15T02:03:13.931Z,73.62
2018-04-15T02:05:41.475Z,74.22
2018-04-15T02:08:09.058Z,74.77
2018-04-15T02:10:36.599Z,74.99
2018-04-15T02:13:04.160Z,75.22
2018-04-15T02:15:31.730Z,75.97
2018-04-15T02:17:59.276Z,76.66
2018-04-15T02:20:26.811Z,77.07
2018-04-15T02:22:54.698Z,77.20
2018-04-15T02:25:22.253Z,77.39
2018-04-15T02:27:49.808Z,76.17
2018-04-15T02:30:17.379Z,75.27
2018-04-15T02:32:44.928Z,74.19
2018-04-15T02:35:12.475Z,72.54
2018-04-15T02:37:40.067Z,71.05
2018-04-15T02:40:07.619Z,71.41
2018-04-15T02:42:35.175Z,69.20
2018-04-15T02:45:02.776Z,69.03
2018-04-15T02:47:30.340Z,71.65
2018-04-15T02:49:57.893Z,70.00
2018-04-15T02:52:25.564Z,71.79
2018-04-15T02:54:53.117Z,71.63
2018-04-15T02:57:20.656Z,71.00
2018-04-15T02:59:48.263Z,70.71
2018-04-15T03:02:15.805Z,69.94
2018-04-15T03:04:43.340Z,69.42
2018-04-15T03:07:10.913Z,68.99
2018-04-15T03:09:38.444Z,68.66
2018-04-15T03:12:05.992Z,67.92
2018-04-15T03:14:33.560Z,68.26
2018-04-15T03:17:01.103Z,68.28
2018-04-15T03:19:28.652Z,68.27
2018-04-15T03:21:56.221Z,67.72
2018-04-15T03:24:23.772Z,66.80
2018-04-15T03:26:51.321Z,67.54
2018-04-15T03:29:18.993Z,67.76
2018-04-15T03:31:46.539Z,67.29
2018-04-15T03:34:14.074Z,67.28
2018-04-15T03:36:41.643Z,67.58
2018-04-15T03:39:09.191Z,67.67
2018-04-15T03:41:36.741Z,67.72
2018-04-15T03:44:04.309Z,67.80
2018-04-15T03:46:31.851Z,68.59
2018-04-15T03:48:59.398Z,66.69
2018-04-15T03:51:26.963Z,66.91
2018-04-15T03:53:54.512Z,67.18
2018-04-15T03:56:22.052Z,66.35
2018-04-15T03:58:49.934Z,66.98
2018-04-15T04:01:17.505Z,67.40
2018-04-15T04:03:45.052Z,66.79
2018-04-15T04:06:12.777Z,65.81
2018-04-15T04:08:40.316Z,66.31
2018-04-15T04:11:07.855Z,66.04
2018-04-15T04:13:35.455Z,66.12
2018-04-15T04:16:03.031Z,66.74
2018-04-15T04:18:42.252Z,66.95
2018-04-15T04:21:21.542Z,67.41
2018-04-15T04:24:00.790Z,68.69
2018-04-15T04:26:28.336Z,68.62
2018-04-15T04:28:55.914Z,68.15
2018-04-15T04:31:23.498Z,68.35
2018-04-15T04:33:51.037Z,66.91
2018-04-15T04:36:18.571Z,65.23
2018-04-15T04:38:46.178Z,63.23
2018-04-15T04:41:13.728Z,60.83
2018-04-15T04:43:41.275Z,56.88
2018-04-15T04:46:08.836Z,57.63
2018-04-15T04:48:36.381Z,55.81
2018-04-15T04:51:03.934Z,55.34
2018-04-15T04:53:31.657Z,54.83
2018-04-15T04:55:59.201Z,53.08
2018-04-15T04:58:26.760Z,51.79
2018-04-15T05:00:54.476Z,52.17
2018-04-15T05:03:22.046Z,52.96
2018-04-15T05:05:49.629Z,51.55
2018-04-15T05:08:17.300Z,52.50
2018-04-15T05:10:44.840Z,52.51
2018-04-15T05:13:12.396Z,52.39
2018-04-15T05:15:40.019Z,51.82
2018-04-15T05:18:07.544Z,49.38
2018-04-15T05:20:35.082Z,47.14
2018-04-15T05:23:02.821Z,45.38
2018-04-15T05:25:30.376Z,46.38
2018-04-15T05:27:57.992Z,47.28
2018-04-15T05:30:25.737Z,46.64
2018-04-15T05:32:53.285Z,47.16
2018-04-15T05:35:20.836Z,45.07
2018-04-15T05:37:48.529Z,46.58
2018-04-15T05:40:16.063Z,45.48
2018-04-15T05:42:43.606Z,45.53
2018-04-15T05:45:11.185Z,45.42
2018-04-15T05:47:38.756Z,45.33
2018-04-15T05:50:06.332Z,45.10
2018-04-15T05:52:33.904Z,44.09
2018-04-15T05:55:01.449Z,44.05
2018-04-15T05:57:28.998Z,45.54
2018-04-15T05:59:56.582Z,45.32
2018-04-15T06:02:24.120Z,46.43
2018-04-15T06:04:51.662Z,46.88
2018-04-15T06:07:19.524Z,46.81
2018-04-15T06:09:47.065Z,47.06
2018-04-15T06:12:14.635Z,47.24
2018-04-15T06:14:42.237Z,47.80
2018-04-15T06:17:09.787Z,47.54
2018-04-15T06:19:37.356Z,47.28
2018-04-15T06:22:04.961Z,47.15
2018-04-15T06:24:32.524Z,46.24
2018-04-15T06:27:00.082Z,46.11
2018-04-15T06:29:27.775Z,46.71
2018-04-15T06:31:56.204Z,47.49
2018-04-15T06:34:23.756Z,47.30
2018-04-15T06:36:51.536Z,46.92
2018-04-15T06:39:19.073Z,45.68
2018-04-15T06:41:46.629Z,45.44
2018-04-15T06:44:14.222Z,45.19
2018-04-15T06:46:41.776Z,45.74
2018-04-15T06:49:09.324Z,45.10
2018-04-15T06:51:37.904Z,44.90
2018-04-15T06:54:05.459Z,44.19
2018-04-15T06:56:33.037Z,46.08
2018-04-15T06:59:00.633Z,45.72
2018-04-15T07:01:28.227Z,44.34
2018-04-15T07:03:55.766Z,46.59
2018-04-15T07:06:23.441Z,46.44
2018-04-15T07:08:50.981Z,45.86
2018-04-15T07:11:18.556Z,45.44
2018-04-15T07:13:46.287Z,44.88
2018-04-15T07:16:13.823Z,46.11
2018-04-15T07:18:41.392Z,47.09
2018-04-15T07:21:09.127Z,46.29
2018-04-15T07:23:36.673Z,45.50
2018-04-15T07:26:04.244Z,45.40
2018-04-15T07:28:31.827Z,45.74
2018-04-15T07:30:59.368Z,46.21
2018-04-15T07:33:27.145Z,47.77
2018-04-15T07:35:54.908Z,46.84
2018-04-15T07:38:22.481Z,46.56
2018-04-15T07:40:50.048Z,46.89
2018-04-15T07:43:17.642Z,46.87
2018-04-15T07:45:45.216Z,47.86
2018-04-15T07:48:12.784Z,49.45
2018-04-15T07:50:40.372Z,48.77
2018-04-15T07:53:07.921Z,48.56
2018-04-15T07:55:35.475Z,47.44
2018-04-15T07:58:03.196Z,45.38
2018-04-15T08:00:30.737Z,44.84
2018-04-15T08:02:58.301Z,43.47
2018-04-15T08:05:25.857Z,44.43
2018-04-15T08:07:53.403Z,42.39
2018-04-15T08:10:21.000Z,43.67
2018-04-15T08:12:48.545Z,44.75
2018-04-15T08:15:16.087Z,44.63
2018-04-15T08:17:43.830Z,44.66
2018-04-15T08:20:11.390Z,44.24
2018-04-15T08:22:38.932Z,45.04
2018-04-15T08:25:06.526Z,43.67
2018-04-15T08:27:34.064Z,44.56
2018-04-15T08:30:01.629Z,42.56
2018-04-15T08:32:29.212Z,42.52
2018-04-15T08:34:56.762Z,41.80
2018-04-15T08:37:24.304Z,43.22
2018-04-15T08:39:51.890Z,41.82
2018-04-15T08:42:19.440Z,42.58
2018-04-15T08:44:46.979Z,42.76
2018-04-15T08:47:14.578Z,42.53
2018-04-15T08:49:42.122Z,45.41
2018-04-15T08:52:09.679Z,45.50
2018-04-15T08:54:37.253Z,46.14
2018-04-15T08:57:04.839Z,45.51
2018-04-15T08:59:32.389Z,45.43
2018-04-15T09:02:00.157Z,46.13
2018-04-15T09:04:27.696Z,46.88
2018-04-15T09:06:55.246Z,47.29
2018-04-15T09:09:22.832Z,47.38
2018-04-15T09:11:50.423Z,47.68
2018-04-15T09:14:17.960Z,47.63
2018-04-15T09:16:45.747Z,49.30
2018-04-15T09:19:13.302Z,49.01
2018-04-15T09:21:40.850Z,48.13
2018-04-15T09:24:08.624Z,48.19
2018-04-15T09:26:36.186Z,49.72
2018-04-15T09:29:03.741Z,48.01
2018-04-15T09:31:31.575Z,49.01
2018-04-15T09:33:59.122Z,48.74
2018-04-15T09:36:26.686Z,48.38
2018-04-15T09:38:54.423Z,48.80
2018-04-15T09:41:21.971Z,48.35
2018-04-15T09:43:49.507Z,50.16
2018-04-15T09:46:17.136Z,48.04
2018-04-15T09:48:44.680Z,46.80
2018-04-15T09:51:12.233Z,47.52
2018-04-15T09:53:39.817Z,47.95
2018-04-15T09:56:07.358Z,47.32
2018-04-15T09:58:34.912Z,46.48
2018-04-15T10:01:03.325Z,46.74
2018-04-15T10:03:30.896Z,46.78
2018-04-15T10:05:58.468Z,47.91
2018-04-15T10:08:26.057Z,47.62
2018-04-15T10:10:53.648Z,47.89
2018-04-15T10:13:21.180Z,46.11
2018-04-15T10:15:48.769Z,45.19
2018-04-15T10:18:16.312Z,45.70
2018-04-15T10:20:43.860Z,46.75
2018-04-15T10:23:11.594Z,45.96
2018-04-15T10:25:39.148Z,45.71
2018-04-15T10:28:06.696Z,45.79
2018-04-15T10:30:34.408Z,46.62
2018-04-15T10:33:01.969Z,46.65
2018-04-15T10:35:29.511Z,45.73
2018-04-15T10:37:57.415Z,44.68
2018-04-15T10:40:24.965Z,45.37
2018-04-15T10:42:52.515Z,43.87
2018-04-15T10:45:20.400Z,44.50
2018-04-15T10:47:47.966Z,43.91
2018-04-15T10:50:15.514Z,43.55
2018-04-15T10:52:43.095Z,43.73
2018-04-15T10:55:10.635Z,43.13
2018-04-15T10:57:38.185Z,42.28
2018-04-15T11:00:05.904Z,43.31
2018-04-15T11:02:33.457Z,41.67
2018-04-15T11:05:01.026Z,40.74
2018-04-15T11:07:28.887Z,41.55
2018-04-15T11:09:56.447Z,40.33
2018-04-15T11:12:24.004Z,40.75
2018-04-15T11:14:51.610Z,40.34
2018-04-15T11:17:19.188Z,40.77
2018-04-15T11:19:46.751Z,41.20
2018-04-15T11:22:14.361Z,40.90
2018-04-15T11:24:41.907Z,39.77
2018-04-15T11:27:09.455Z,39.63
2018-04-15T11:29:37.034Z,39.07
2018-04-15T11:32:04.593Z,39.04
2018-04-15T11:34:32.154Z,39.44
2018-04-15T11:36:59.891Z,39.66
2018-04-15T11:39:27.439Z,39.92
2018-04-15T11:41:54.995Z,39.76
2018-04-15T11:44:22.748Z,39.58
2018-04-15T11:46:50.298Z,39.35
2018-04-15T11:49:17.865Z,39.31
2018-04-15T11:51:45.673Z,39.73
2018-04-15T11:54:13.234Z,40.30
2018-04-15T11:56:40.792Z,40.60
2018-04-15T11:59:08.378Z,40.59
2018-04-15T12:01:35.941Z,40.65
2018-04-15T12:04:03.518Z,41.32
2018-04-15T12:06:31.097Z,41.27
2018-04-15T12:08:58.654Z,40.87
2018-04-15T12:11:26.524Z,41.88
2018-04-15T12:13:54.084Z,41.24
2018-04-15T12:16:21.656Z,40.60
2018-04-15T12:18:49.392Z,40.78
2018-04-15T12:21:16.950Z,41.18
2018-04-15T12:23:44.504Z,40.16
2018-04-15T12:26:12.384Z,40.02
2018-04-15T12:28:39.938Z,39.65
2018-04-15T12:31:07.491Z,39.58
2018-04-15T12:33:35.067Z,38.80
2018-04-15T12:36:02.641Z,38.27
2018-04-15T12:38:30.196Z,38.67
2018-04-15T12:40:57.857Z,36.92
2018-04-15T12:43:25.407Z,37.45
2018-04-15T12:45:52.957Z,37.71
2018-04-15T12:48:20.539Z,37.59
2018-04-15T12:50:48.085Z,36.12
2018-04-15T12:53:15.638Z,35.99
2018-04-15T12:55:43.447Z,36.68
2018-04-15T12:58:11.012Z,37.11
2018-04-15T13:00:38.592Z,36.98
2018-04-15T13:03:06.202Z,36.62
2018-04-15T13:05:33.749Z,37.29
2018-04-15T13:08:01.292Z,36.95
2018-04-15T13:10:28.852Z,35.75
2018-04-15T13:12:56.421Z,35.61
2018-04-15T13:15:24.012Z,36.34
2018-04-15T13:17:51.622Z,36.06
2018-04-15T13:20:19.172Z,35.38
2018-04-15T13:22:46.731Z,34.85
2018-04-15T13:25:14.420Z,35.89
2018-04-15T13:27:41.964Z,34.99
2018-04-15T13:30:09.512Z,35.18
2018-04-15T13:32:37.114Z,34.68
2018-04-15T13:35:04.699Z,34.69
2018-04-15T13:37:32.251Z,34.16
2018-04-15T13:40:00.040Z,33.95
2018-04-15T13:42:27.614Z,33.61
2018-04-15T13:44:55.174Z,34.54
2018-04-15T13:47:22.915Z,34.34
2018-04-15T13:49:50.499Z,34.69
2018-04-15T13:52:18.057Z,33.93
2018-04-15T13:54:45.766Z,33.05
2018-04-15T13:57:13.338Z,33.57
2018-04-15T13:59:40.896Z,34.14
2018-04-15T14:02:08.608Z,33.81
2018-04-15T14:04:36.164Z,33.22
2018-04-15T14:07:03.730Z,33.53
2018-04-15T14:09:31.621Z,32.84
2018-04-15T14:11:59.159Z,33.10
2018-04-15T14:14:26.737Z,33.03
2018-04-15T14:16:54.337Z,33.69
2018-04-15T14:19:21.878Z,34.25
2018-04-15T14:21:49.470Z,34.10
2018-04-15T14:24:17.081Z,34.83
2018-04-15T14:26:44.636Z,34.73
2018-04-15T14:29:12.196Z,34.31
2018-04-15T14:31:40.077Z,35.21
2018-04-15T14:34:07.665Z,36.05
2018-04-15T14:36:35.227Z,35.57
2018-04-15T14:39:02.848Z,35.87
2018-04-15T14:41:30.482Z,36.82
2018-04-15T14:43:58.048Z,36.87
2018-04-15T14:46:25.780Z,36.67
2018-04-15T14:48:53.368Z,36.47
2018-04-15T14:51:20.935Z,37.46
2018-04-15T14:53:48.667Z,37.39
2018-04-15T14:56:16.279Z,37.80
2018-04-15T14:58:43.844Z,37.70
2018-04-15T15:01:11.458Z,37.63
2018-04-15T15:03:39.013Z,37.48
2018-04-15T15:06:06.566Z,37.58
2018-04-15T15:08:34.221Z,37.46
2018-04-15T15:11:01.777Z,37.56
2018-04-15T15:13:29.420Z,37.77
2018-04-15T15:15:57.257Z,37.62
2018-04-15T15:18:24.830Z,37.20
2018-04-15T15:20:52.379Z,37.47
2018-04-15T15:23:20.134Z,37.27
2018-04-15T15:25:47.713Z,37.61
2018-04-15T15:28:15.365Z,37.95
2018-04-15T15:30:43.121Z,37.97
2018-04-15T15:33:10.679Z,39.04
2018-04-15T15:35:38.233Z,39.23
2018-04-15T15:38:05.985Z,40.48
2018-04-15T15:40:33.560Z,41.44
2018-04-15T15:43:01.118Z,40.74
2018-04-15T15:45:28.853Z,42.01
2018-04-15T15:47:56.437Z,42.99
2018-04-15T15:50:24.015Z,43.69
2018-04-15T15:52:51.776Z,43.42
2018-04-15T15:55:19.328Z,43.89
2018-04-15T15:57:46.883Z,44.39
2018-04-15T16:00:14.505Z,44.83
2018-04-15T16:02:42.030Z,45.26
2018-04-15T16:05:09.596Z,46.04
2018-04-15T16:07:37.488Z,46.39
2018-04-15T16:10:05.068Z,46.65
2018-04-15T16:12:32.649Z,47.09
2018-04-15T16:15:00.226Z,47.71
2018-04-15T16:17:27.791Z,47.80
2018-04-15T16:19:55.369Z,48.29
2018-04-15T16:22:22.977Z,49.02
2018-04-15T16:24:50.625Z,49.54
2018-04-15T16:27:18.199Z,49.80
2018-04-15T16:29:45.800Z,49.85
2018-04-15T16:32:13.361Z,49.74
2018-04-15T16:34:40.920Z,49.75
2018-04-15T16:37:08.525Z,50.46
2018-04-15T16:39:36.121Z,50.41
2018-04-15T16:42:03.731Z,50.48
2018-04-15T16:44:31.529Z,50.99
2018-04-15T16:46:59.169Z,51.10
2018-04-15T16:49:26.760Z,50.86
2018-04-15T16:51:54.406Z,50.75
2018-04-15T16:54:22.047Z,50.85
2018-04-15T16:56:49.636Z,51.22
2018-04-15T16:59:17.284Z,51.14
2018-04-15T17:01:44.869Z,51.52
2018-04-15T17:04:12.712Z,52.35
2018-04-15T17:06:40.532Z,52.72
2018-04-15T17:09:08.341Z,53.23
2018-04-15T17:11:36.217Z,53.68
2018-04-15T17:14:03.839Z,53.66
2018-04-15T17:16:31.435Z,53.89
2018-04-15T17:18:59.163Z,54.61
2018-04-15T17:21:26.854Z,54.95
2018-04-15T17:23:54.580Z,55.23
2018-04-15T17:26:22.238Z,55.44
2018-04-15T17:28:49.825Z,55.97
2018-04-15T17:31:17.535Z,56.10
2018-04-15T17:33:45.159Z,56.08
2018-04-15T17:36:12.770Z,56.11
2018-04-15T17:38:40.555Z,56.38
2018-04-15T17:41:08.174Z,56.71
2018-04-15T17:43:35.767Z,56.73
2018-04-15T17:46:03.457Z,56.99
2018-04-15T17:48:31.298Z,57.11
2018-04-15T17:50:58.893Z,57.57
2018-04-15T17:53:26.635Z,57.71
2018-04-15T17:55:54.263Z,57.98
2018-04-15T17:58:21.976Z,58.00
2018-04-15T18:00:49.721Z,58.49
2018-04-15T18:03:17.403Z,58.67
2018-04-15T18:05:45.266Z,58.85
2018-04-15T18:08:13.029Z,59.13
2018-04-15T18:10:40.755Z,59.05
2018-04-15T18:13:08.374Z,59.18
2018-04-15T18:15:36.023Z,59.42
2018-04-15T18:18:03.577Z,59.59
2018-04-15T18:20:31.388Z,59.16
2018-04-15T18:22:59.282Z,59.49
2018-04-15T18:25:26.897Z,59.64
2018-04-15T18:27:54.724Z,59.53
2018-04-15T18:30:22.405Z,59.88
2018-04-15T18:32:50.097Z,60.07
2018-04-15T18:35:17.669Z,59.78
2018-04-15T18:37:45.514Z,59.75
2018-04-15T18:40:13.126Z,59.66
2018-04-15T18:42:40.728Z,59.92
2018-04-15T18:45:08.680Z,60.10
2018-04-15T18:47:36.379Z,60.49
2018-04-15T18:50:04.167Z,60.68
2018-04-15T18:52:32.096Z,60.86
2018-04-15T18:54:59.726Z,61.11
2018-04-15T18:57:27.528Z,61.41
2018-04-15T18:59:55.285Z,61.26
2018-04-15T19:02:22.880Z,61.34
2018-04-15T19:04:50.455Z,61.24
2018-04-15T19:07:18.145Z,61.76
2018-04-15T19:09:45.755Z,61.77
2018-04-15T19:12:13.362Z,61.71
2018-04-15T19:14:40.965Z,61.47
2018-04-15T19:17:08.572Z,61.43
2018-04-15T19:19:36.205Z,61.29
2018-04-15T19:22:03.860Z,61.34
2018-04-15T19:24:31.448Z,60.83
2018-04-15T19:26:59.025Z,59.86
2018-04-15T19:29:27.032Z,59.67
2018-04-15T19:31:54.714Z,59.35
2018-04-15T19:34:22.388Z,59.40
2018-04-15T19:36:50.180Z,58.94
2018-04-15T19:39:17.791Z,59.20
2018-04-15T19:41:45.391Z,59.56
2018-04-15T19:44:13.154Z,59.31
2018-04-15T19:46:40.992Z,59.21
2018-04-15T19:49:08.604Z,59.42
2018-04-15T19:51:36.388Z,59.42
2018-04-15T19:54:03.987Z,59.20
2018-04-15T19:56:31.566Z,59.41
2018-04-15T19:58:59.185Z,58.44
2018-04-15T20:01:26.756Z,58.23
2018-04-15T20:03:54.328Z,58.03
2018-04-15T20:06:21.953Z,57.97
2018-04-15T20:08:49.517Z,58.10
2018-04-15T20:11:17.147Z,57.69
2018-04-15T20:13:44.820Z,57.36
2018-04-15T20:16:12.413Z,56.86
2018-04-15T20:18:40.005Z,56.74
2018-04-15T20:21:07.717Z,57.18
2018-04-15T20:23:35.295Z,57.58
2018-04-15T20:26:02.860Z,56.86
2018-04-15T20:28:30.454Z,56.94
2018-04-15T20:30:58.014Z,56.43
2018-04-15T20:33:25.585Z,56.38
2018-04-15T20:35:53.316Z,56.29
2018-04-15T20:38:20.863Z,56.20
2018-04-15T20:40:48.451Z,56.52
2018-04-15T20:43:16.049Z,56.47
2018-04-15T20:45:43.616Z,56.31
2018-04-15T20:48:11.231Z,56.53
2018-04-15T20:50:38.811Z,56.52
2018-04-15T20:53:06.414Z,56.55
2018-04-15T20:55:33.993Z,55.79
2018-04-15T20:58:01.585Z,56.33
2018-04-15T21:00:29.153Z,56.14
2018-04-15T21:02:56.706Z,55.20
2018-04-15T21:05:24.336Z,55.02
2018-04-15T21:07:51.964Z,54.76
2018-04-15T21:10:19.540Z,54.54
2018-04-15T21:12:47.414Z,54.88
2018-04-15T21:15:14.977Z,55.26
2018-04-15T21:17:42.520Z,55.13
2018-04-15T21:20:11.635Z,55.68
2018-04-15T21:22:39.210Z,56.08
2018-04-15T21:25:07.679Z,56.76
2018-04-15T21:27:35.413Z,56.96
2018-04-15T21:30:02.965Z,57.22
2018-04-15T21:32:30.555Z,57.50
2018-04-15T21:34:58.289Z,57.37
2018-04-15T21:37:25.889Z,57.26
2018-04-15T21:39:53.470Z,57.89
2018-04-15T21:42:21.077Z,58.07
2018-04-15T21:44:48.630Z,58.34
2018-04-15T21:47:16.183Z,58.83
2018-04-15T21:49:43.776Z,59.06
2018-04-15T21:52:11.331Z,59.63
2018-04-15T21:54:38.877Z,59.89
2018-04-15T21:57:06.638Z,60.01
2018-04-15T21:59:34.197Z,60.61
2018-04-15T22:02:01.762Z,60.74
2018-04-15T22:04:29.389Z,60.44
2018-04-15T22:06:56.956Z,60.18
2018-04-15T22:09:24.503Z,60.71
2018-04-15T22:12:03.714Z,60.85
2018-04-15T22:14:31.266Z,61.04
2018-04-15T22:16:58.820Z,61.28
2018-04-15T22:19:26.501Z,61.29
2018-04-15T22:21:54.068Z,61.02
2018-04-15T22:24:21.649Z,61.04
2018-04-15T22:26:49.857Z,60.76
2018-04-15T22:29:17.440Z,60.95
2018-04-15T22:31:45.023Z,61.15
2018-04-15T22:34:12.578Z,60.81
2018-04-15T22:36:40.125Z,61.10
2018-04-15T22:39:07.712Z,60.66
2018-04-15T22:41:35.278Z,60.87
2018-04-15T22:44:02.824Z,60.80
2018-04-15T22:46:30.544Z,60.72
2018-04-15T22:48:58.113Z,61.19
2018-04-15T22:51:25.695Z,60.87
2018-04-15T22:53:53.424Z,60.99
2018-04-15T22:56:21.001Z,60.34
2018-04-15T22:58:48.548Z,60.22
2018-04-15T23:01:16.188Z,59.73
2018-04-15T23:03:43.748Z,59.41
2018-04-15T23:06:11.320Z,60.01
2018-04-15T23:08:38.916Z,59.79
2018-04-15T23:11:06.504Z,60.18
2018-04-15T23:13:34.081Z,60.03
2018-04-15T23:16:01.676Z,59.46
2018-04-15T23:18:29.234Z,58.92
2018-04-15T23:20:56.784Z,59.43
2018-04-15T23:23:24.348Z,59.94
2018-04-15T23:25:51.897Z,60.09
2018-04-15T23:28:19.454Z,60.15
2018-04-15T23:30:47.058Z,60.45
2018-04-15T23:33:14.623Z,60.05
2018-04-15T23:35:42.180Z,60.08
2018-04-15T23:38:09.772Z,59.78
2018-04-15T23:40:37.356Z,59.81
2018-04-15T23:43:04.904Z,59.79
2018-04-15T23:45:32.628Z,60.10
2018-04-15T23:48:00.182Z,60.45
2018-04-15T23:50:27.725Z,59.23
2018-04-15T23:52:55.470Z,59.45
2018-04-15T23:55:23.017Z,58.72
2018-04-15T23:57:50.583Z,59.47
